Time;durP1;ratioP1;P1;durP2;ratioP2;P2;SDS_P1;SDS_P2;PMS_P1;PMS_P2;Temp;Humidity;BMP_temperature;BMP_pressure;BME280_temperature;BME280_humidity;BME280_pressure;Samples;Min_cycle;Max_cycle;Signal;HPM_P1;HPM_P2
2021/01/19 00:01:15;;;;;;;5.82;3.20;;;7.10;92.90;;;;;;5014934;28;20022;-73
2021/01/19 00:03:41;;;;;;;7.38;3.50;;;7.10;92.90;;;;;;5014086;28;20037;-73
2021/01/19 00:06:07;;;;;;;9.57;4.00;;;7.10;92.80;;;;;;5013650;28;20379;-73
2021/01/19 00:08:33;;;;;;;7.85;4.45;;;7.10;92.80;;;;;;5014378;28;20053;-73
2021/01/19 00:11:00;;;;;;;6.85;3.67;;;7.10;92.80;;;;;;5014857;28;20557;-73
2021/01/19 00:13:26;;;;;;;9.90;4.18;;;7.00;92.80;;;;;;5014857;28;20033;-72
2021/01/19 00:15:52;;;;;;;10.85;4.32;;;7.00;92.80;;;;;;5013913;28;20961;-74
2021/01/19 00:18:18;;;;;;;9.32;3.83;;;7.00;92.80;;;;;;5013225;28;20129;-74
2021/01/19 00:20:44;;;;;;;8.45;4.60;;;7.00;92.80;;;;;;5012707;28;20034;-72
2021/01/19 00:23:13;;;;;;;8.40;4.32;;;7.10;92.80;;;;;;5013091;28;20464;-73
2021/01/19 00:25:40;;;;;;;9.20;4.80;;;7.10;92.70;;;;;;5012652;28;20478;-73
2021/01/19 00:28:06;;;;;;;6.50;4.07;;;7.10;92.70;;;;;;5014564;28;20124;-73
2021/01/19 00:30:31;;;;;;;9.43;4.03;;;7.10;92.80;;;;;;5014368;28;20436;-73
2021/01/19 00:32:57;;;;;;;9.40;4.13;;;7.00;92.80;;;;;;5013688;28;20026;-72
2021/01/19 00:35:23;;;;;;;11.02;4.18;;;7.00;92.70;;;;;;5013058;28;20022;-72
2021/01/19 00:37:48;;;;;;;8.05;3.15;;;7.00;92.70;;;;;;5012320;28;20125;-72
2021/01/19 00:40:15;;;;;;;6.13;3.40;;;7.00;92.70;;;;;;5013996;28;20541;-72
2021/01/19 00:42:40;;;;;;;6.90;2.88;;;7.00;92.70;;;;;;5013217;28;20037;-72
2021/01/19 00:45:07;;;;;;;6.07;3.45;;;7.00;92.70;;;;;;5012953;28;20030;-72
2021/01/19 00:47:32;;;;;;;7.05;2.75;;;7.00;92.70;;;;;;5013965;28;20022;-72
2021/01/19 00:49:58;;;;;;;5.60;2.47;;;7.00;92.70;;;;;;5013494;28;20033;-73
2021/01/19 00:52:24;;;;;;;6.53;2.30;;;7.00;92.70;;;;;;5014099;28;20026;-72
2021/01/19 00:54:49;;;;;;;4.88;2.58;;;7.00;92.60;;;;;;5012373;28;20029;-72
2021/01/19 00:57:15;;;;;;;5.10;2.50;;;7.00;92.60;;;;;;5013955;28;20471;-72
2021/01/19 00:59:40;;;;;;;4.68;2.63;;;7.00;92.60;;;;;;5012827;28;20097;-73
2021/01/19 01:02:07;;;;;;;3.95;2.17;;;7.00;92.60;;;;;;5012501;28;20028;-72
2021/01/19 01:04:32;;;;;;;4.05;2.17;;;7.00;92.60;;;;;;5012337;28;20033;-73
2021/01/19 01:06:58;;;;;;;5.15;2.58;;;7.00;92.60;;;;;;5011770;28;20051;-73
2021/01/19 01:09:24;;;;;;;5.53;1.77;;;7.00;92.60;;;;;;5013275;28;20105;-73
2021/01/19 01:11:49;;;;;;;5.78;2.33;;;7.00;92.60;;;;;;5012909;28;20456;-72
2021/01/19 01:14:15;;;;;;;7.90;1.98;;;7.00;92.60;;;;;;5013317;28;20108;-73
2021/01/19 01:16:41;;;;;;;7.82;2.88;;;7.00;92.50;;;;;;5011609;28;20092;-73
2021/01/19 01:19:08;;;;;;;3.35;1.77;;;7.00;92.50;;;;;;5013563;28;20057;-73
2021/01/19 01:21:38;;;;;;;2.97;1.77;;;7.00;92.50;;;;;;5012220;28;20024;-73
2021/01/19 01:24:06;;;;;;;6.15;2.10;;;7.00;92.50;;;;;;5013379;28;20080;-73
2021/01/19 01:26:31;;;;;;;3.17;1.65;;;7.00;92.50;;;;;;5013013;28;20050;-72
2021/01/19 01:28:57;;;;;;;4.97;1.60;;;7.00;92.50;;;;;;5012786;28;20254;-73
2021/01/19 01:31:23;;;;;;;4.47;1.90;;;7.00;92.50;;;;;;5013253;28;20337;-72
2021/01/19 01:33:48;;;;;;;4.43;1.55;;;7.00;92.50;;;;;;5012692;28;20464;-73
2021/01/19 01:36:15;;;;;;;3.85;1.85;;;7.00;92.50;;;;;;5013208;28;20030;-72
2021/01/19 01:38:41;;;;;;;4.00;1.98;;;7.00;92.40;;;;;;5012477;28;20022;-72
2021/01/19 01:41:21;;;;;;;4.28;1.55;;;7.00;92.30;;;;;;5012779;28;20383;-72
2021/01/19 01:43:47;;;;;;;2.63;1.75;;;7.00;92.30;;;;;;5012390;28;20460;-72
2021/01/19 01:46:17;;;;;;;6.90;1.88;;;6.90;92.20;;;;;;5013197;28;20018;-72
2021/01/19 01:48:46;;;;;;;3.53;1.40;;;6.90;92.20;;;;;;5012430;28;20040;-73
2021/01/19 01:51:12;;;;;;;6.90;1.73;;;6.90;92.20;;;;;;5012785;28;20022;-72
2021/01/19 01:53:42;;;;;;;4.07;1.50;;;6.90;92.20;;;;;;5013017;28;20021;-72
2021/01/19 01:56:10;;;;;;;1.58;1.00;;;6.90;92.10;;;;;;5012315;28;20483;-72
2021/01/19 01:58:36;;;;;;;2.85;1.20;;;6.90;92.10;;;;;;5012776;28;20022;-72
2021/01/19 02:01:03;;;;;;;2.75;1.42;;;6.90;92.10;;;;;;5010880;28;20014;-72
2021/01/19 02:03:29;;;;;;;2.63;1.60;;;6.90;92.20;;;;;;5012312;28;20578;-72
2021/01/19 02:05:55;;;;;;;2.47;1.35;;;6.90;92.20;;;;;;5011556;28;20053;-73
2021/01/19 02:08:40;;;;;;;3.40;1.75;;;6.80;92.20;;;;;;5012611;28;20100;-72
2021/01/19 02:11:14;;;;;;;2.40;1.27;;;6.80;92.20;;;;;;5013165;28;20049;-72
2021/01/19 02:13:58;;;;;;;3.35;1.52;;;6.80;92.20;;;;;;5012761;28;20033;-73
2021/01/19 02:16:33;;;;;;;6.20;2.00;;;6.80;92.10;;;;;;5011126;28;20029;-72
2021/01/19 02:19:17;;;;;;;1.95;1.15;;;6.80;92.00;;;;;;5011610;28;20391;-73
2021/01/19 02:22:09;;;;;;;6.03;1.83;;;6.80;91.90;;;;;;5010523;28;20022;-73
2021/01/19 02:25:09;;;;;;;4.45;1.20;;;6.80;91.90;;;;;;5012329;28;20038;-73
2021/01/19 02:27:52;;;;;;;3.05;1.35;;;6.80;91.90;;;;;;5012431;28;20463;-72
2021/01/19 02:30:20;;;;;;;3.20;1.30;;;6.80;91.80;;;;;;5011040;28;20104;-72
2021/01/19 02:33:03;;;;;;;2.30;1.50;;;6.80;91.80;;;;;;5011645;28;20403;-72
2021/01/19 02:35:46;;;;;;;1.50;1.05;;;6.90;91.80;;;;;;5010988;28;20061;-72
2021/01/19 02:38:43;;;;;;;3.58;1.85;;;6.80;91.70;;;;;;5012329;28;20022;-72
2021/01/19 02:41:10;;;;;;;3.80;1.63;;;6.90;91.60;;;;;;5011953;28;20519;-72
2021/01/19 02:43:41;;;;;;;8.35;1.20;;;6.80;91.60;;;;;;5011862;28;20038;-72
2021/01/19 02:46:07;;;;;;;4.45;1.40;;;6.90;91.60;;;;;;5011151;28;20388;-72
2021/01/19 02:48:33;;;;;;;10.70;2.45;;;6.80;91.50;;;;;;5010884;28;20072;-71
2021/01/19 02:50:59;;;;;;;3.58;1.58;;;6.80;91.50;;;;;;5011166;28;20033;-72
2021/01/19 02:53:25;;;;;;;9.52;3.35;;;6.90;91.40;;;;;;5011745;28;20383;-72
2021/01/19 02:55:52;;;;;;;5.15;1.50;;;6.90;91.40;;;;;;5010259;28;20057;-72
2021/01/19 02:58:35;;;;;;;4.20;1.67;;;6.90;91.40;;;;;;5011001;28;20026;-72
2021/01/19 03:01:09;;;;;;;5.47;1.90;;;6.90;91.30;;;;;;5011281;28;20025;-72
2021/01/19 03:03:38;;;;;;;5.80;1.75;;;6.80;91.20;;;;;;5011940;28;20121;-72
2021/01/19 03:06:10;;;;;;;2.58;1.83;;;6.80;91.20;;;;;;5011661;28;20032;-72
2021/01/19 03:08:39;;;;;;;2.63;1.15;;;6.80;91.20;;;;;;5011970;28;20030;-72
2021/01/19 03:11:06;;;;;;;4.15;1.77;;;6.80;91.20;;;;;;5010916;28;20320;-72
2021/01/19 03:13:32;;;;;;;3.35;1.98;;;6.80;91.20;;;;;;5010499;28;20387;-72
2021/01/19 03:16:05;;;;;;;6.65;2.58;;;6.70;91.10;;;;;;5009600;28;20476;-72
2021/01/19 03:18:30;;;;;;;5.10;1.52;;;6.80;91.10;;;;;;5014260;28;20021;-72
2021/01/19 03:20:56;;;;;;;3.08;1.73;;;6.70;91.00;;;;;;5013898;28;20026;-72
2021/01/19 03:23:22;;;;;;;2.45;1.40;;;6.70;91.00;;;;;;5015354;28;20030;-71
2021/01/19 03:25:48;;;;;;;2.78;1.65;;;6.70;91.00;;;;;;5014886;28;20407;-72
2021/01/19 03:28:13;;;;;;;3.80;2.38;;;6.70;91.00;;;;;;5015706;28;20048;-72
2021/01/19 03:30:39;;;;;;;4.30;1.95;;;6.70;91.00;;;;;;5015578;28;20065;-72
2021/01/19 03:33:05;;;;;;;9.98;2.65;;;6.70;91.00;;;;;;5015105;28;20109;-72
2021/01/19 03:35:31;;;;;;;4.07;1.85;;;6.60;91.00;;;;;;5015663;28;20571;-72
2021/01/19 03:37:56;;;;;;;6.25;2.45;;;6.60;91.00;;;;;;5014426;28;20336;-72
2021/01/19 03:40:22;;;;;;;6.32;2.42;;;6.50;91.00;;;;;;5015545;28;20037;-72
2021/01/19 03:42:48;;;;;;;5.47;2.00;;;6.40;91.10;;;;;;5013599;28;20061;-75
2021/01/19 03:45:13;;;;;;;3.75;1.58;;;6.40;91.30;;;;;;5015207;28;20371;-72
2021/01/19 03:47:39;;;;;;;4.57;2.03;;;6.40;91.30;;;;;;5014918;28;20033;-72
2021/01/19 03:50:05;;;;;;;12.50;2.40;;;6.30;91.30;;;;;;5013253;28;20026;-72
2021/01/19 03:52:31;;;;;;;6.65;2.13;;;6.30;91.30;;;;;;5015429;28;20034;-72
2021/01/19 03:54:56;;;;;;;6.47;2.35;;;6.20;91.40;;;;;;5013810;28;20041;-72
2021/01/19 03:57:22;;;;;;;5.75;2.30;;;6.30;91.50;;;;;;5013781;28;20451;-73
2021/01/19 03:59:47;;;;;;;8.43;2.50;;;6.30;91.50;;;;;;5015252;28;20076;-73
2021/01/19 04:02:13;;;;;;;4.15;2.38;;;6.30;91.50;;;;;;5013054;28;20408;-72
2021/01/19 04:04:40;;;;;;;12.48;3.08;;;6.20;91.50;;;;;;5014804;28;20034;-72
2021/01/19 04:07:05;;;;;;;3.25;2.00;;;6.20;91.60;;;;;;5014140;28;20423;-72
2021/01/19 04:09:31;;;;;;;4.95;2.20;;;6.20;91.60;;;;;;5014537;28;20018;-72
2021/01/19 04:11:57;;;;;;;5.43;3.00;;;6.20;91.70;;;;;;5012879;28;20026;-72
2021/01/19 04:14:22;;;;;;;9.85;2.97;;;6.10;91.70;;;;;;5014753;28;20030;-72
2021/01/19 04:16:48;;;;;;;4.45;2.20;;;6.10;91.90;;;;;;5013406;28;20022;-71
2021/01/19 04:19:14;;;;;;;7.70;2.90;;;6.10;91.90;;;;;;5013186;28;20022;-72
2021/01/19 04:21:39;;;;;;;7.10;3.20;;;6.10;92.00;;;;;;5024292;28;20391;-73
2021/01/19 04:24:06;;;;;;;6.88;2.88;;;6.10;92.10;;;;;;5024209;28;20033;-73
2021/01/19 04:26:31;;;;;;;7.53;2.80;;;6.00;92.10;;;;;;5023220;28;20041;-72
2021/01/19 04:28:57;;;;;;;9.20;2.60;;;6.00;92.20;;;;;;5018893;28;20026;-72
2021/01/19 04:31:22;;;;;;;8.73;2.50;;;6.00;92.30;;;;;;5014016;28;20030;-72
2021/01/19 04:33:48;;;;;;;7.68;2.42;;;6.00;92.40;;;;;;5013081;28;20440;-72
2021/01/19 04:36:14;;;;;;;6.88;2.55;;;6.00;92.40;;;;;;5013390;28;20053;-73
2021/01/19 04:38:39;;;;;;;4.78;2.53;;;6.00;92.40;;;;;;5012953;28;20061;-72
2021/01/19 04:41:08;;;;;;;6.88;3.22;;;6.00;92.40;;;;;;5013683;28;20022;-72
2021/01/19 04:43:34;;;;;;;16.48;3.90;;;6.00;92.50;;;;;;5014160;28;20121;-72
2021/01/19 04:46:03;;;;;;;5.93;2.78;;;6.00;92.60;;;;;;5012285;28;20455;-73
2021/01/19 04:48:31;;;;;;;9.63;3.28;;;6.00;92.70;;;;;;5012742;28;20018;-70
2021/01/19 04:50:57;;;;;;;9.32;3.15;;;6.00;92.80;;;;;;5013535;28;20049;-81
2021/01/19 04:53:28;;;;;;;10.98;3.42;;;6.00;92.80;;;;;;5010046;28;20096;-84
2021/01/19 04:55:56;;;;;;;7.63;3.70;;;6.00;92.80;;;;;;5010524;28;20108;-80
2021/01/19 04:58:23;;;;;;;7.22;3.80;;;6.00;92.90;;;;;;5012257;28;20479;-81
2021/01/19 05:01:10;;;;;;;5.43;2.55;;;6.00;92.90;;;;;;5012147;28;20052;-78
2021/01/19 05:03:41;;;;;;;6.72;3.40;;;6.10;93.00;;;;;;5010578;28;20125;-84
2021/01/19 05:06:10;;;;;;;8.50;2.95;;;6.00;93.00;;;;;;5009938;28;20014;-85
2021/01/19 05:08:40;;;;;;;6.43;3.13;;;5.90;93.20;;;;;;5010979;28;20491;-84
2021/01/19 05:11:13;;;;;;;17.85;5.63;;;5.90;93.20;;;;;;5010820;28;20516;-85
2021/01/19 05:13:49;;;;;;;5.13;2.65;;;5.90;93.30;;;;;;5012464;28;20032;-87
2021/01/19 05:16:16;;;;;;;9.13;3.10;;;5.90;93.40;;;;;;5020531;28;20022;-86
2021/01/19 05:18:43;;;;;;;8.18;3.28;;;5.90;93.40;;;;;;5030468;28;20148;-86
2021/01/19 05:21:09;;;;;;;6.35;3.17;;;5.90;93.40;;;;;;5031877;28;20025;-86
2021/01/19 05:23:35;;;;;;;3.38;2.10;;;6.00;93.40;;;;;;5032281;28;20360;-87
2021/01/19 05:26:03;;;;;;;8.48;3.92;;;6.00;93.40;;;;;;5031654;28;20029;-78
2021/01/19 05:28:36;;;;;;;4.80;2.90;;;6.00;93.40;;;;;;5032450;28;20046;-73
2021/01/19 05:31:23;;;;;;;6.30;2.78;;;6.00;93.40;;;;;;5031050;28;20116;-73
2021/01/19 05:33:52;;;;;;;8.07;3.03;;;6.00;93.50;;;;;;5031803;28;20025;-73
2021/01/19 05:36:23;;;;;;;4.53;2.83;;;6.00;93.50;;;;;;5030717;28;20022;-72
2021/01/19 05:38:51;;;;;;;3.95;2.50;;;6.00;93.50;;;;;;5033038;28;20017;-73
2021/01/19 05:41:26;;;;;;;7.70;3.15;;;6.00;93.50;;;;;;5031771;28;20283;-73
2021/01/19 05:43:54;;;;;;;8.05;3.05;;;6.00;93.60;;;;;;5032587;28;20026;-72
2021/01/19 05:46:28;;;;;;;7.93;3.00;;;6.00;93.60;;;;;;5031866;28;20432;-73
2021/01/19 05:49:02;;;;;;;4.38;2.58;;;6.00;93.70;;;;;;5031429;28;20498;-72
2021/01/19 05:51:32;;;;;;;6.60;2.60;;;6.00;93.70;;;;;;5032839;28;20025;-72
2021/01/19 05:53:59;;;;;;;5.43;2.55;;;6.00;93.70;;;;;;5031418;28;20022;-72
2021/01/19 05:56:26;;;;;;;5.43;2.95;;;6.00;93.70;;;;;;5032780;28;20506;-73
2021/01/19 05:58:52;;;;;;;5.95;2.83;;;6.00;93.80;;;;;;5032643;28;20022;-74
2021/01/19 06:01:33;;;;;;;4.45;2.20;;;6.00;93.90;;;;;;5032034;28;20259;-73
2021/01/19 06:04:03;;;;;;;5.50;2.33;;;6.00;93.90;;;;;;5030738;28;20036;-74
2021/01/19 06:06:30;;;;;;;5.28;2.17;;;6.00;94.00;;;;;;5032513;28;20474;-73
2021/01/19 06:09:00;;;;;;;3.72;2.08;;;6.00;94.00;;;;;;5032142;28;20018;-73
2021/01/19 06:11:27;;;;;;;5.47;2.42;;;6.00;94.00;;;;;;5031136;28;20041;-73
2021/01/19 06:13:53;;;;;;;3.55;2.08;;;6.00;94.00;;;;;;5032284;28;20025;-73
2021/01/19 06:16:26;;;;;;;4.60;2.88;;;6.00;94.10;;;;;;5031643;28;20439;-73
2021/01/19 06:18:53;;;;;;;4.82;1.73;;;6.10;94.10;;;;;;5031965;28;20471;-73
2021/01/19 06:21:35;;;;;;;6.53;2.83;;;6.10;94.10;;;;;;5031528;28;20024;-73
2021/01/19 06:24:01;;;;;;;6.10;2.40;;;6.10;94.10;;;;;;5031588;28;20042;-74
2021/01/19 06:26:27;;;;;;;4.68;2.08;;;6.10;94.10;;;;;;5030704;28;20533;-73
2021/01/19 06:28:53;;;;;;;4.25;2.10;;;6.10;94.20;;;;;;5030816;28;20021;-73
2021/01/19 06:31:23;;;;;;;3.17;2.22;;;6.10;94.30;;;;;;5031097;28;20079;-73
2021/01/19 06:33:50;;;;;;;4.95;2.20;;;6.10;94.30;;;;;;5030954;28;20028;-73
2021/01/19 06:36:19;;;;;;;4.80;2.00;;;6.10;94.30;;;;;;5031469;28;20436;-74
2021/01/19 06:38:48;;;;;;;4.55;2.00;;;6.10;94.30;;;;;;5031932;28;20034;-73
2021/01/19 06:41:17;;;;;;;4.15;2.20;;;6.10;94.40;;;;;;5030064;28;20049;-73
2021/01/19 06:43:51;;;;;;;3.88;1.88;;;6.10;94.30;;;;;;5030582;28;20387;-73
2021/01/19 06:46:19;;;;;;;4.10;1.92;;;6.20;94.40;;;;;;5031370;28;20026;-73
2021/01/19 06:48:46;;;;;;;4.65;1.75;;;6.20;94.40;;;;;;5031863;28;20053;-73
2021/01/19 06:51:14;;;;;;;5.03;2.13;;;6.20;94.40;;;;;;5032166;28;20025;-73
2021/01/19 06:53:45;;;;;;;4.53;2.15;;;6.20;94.70;;;;;;5037065;28;20070;-73
2021/01/19 06:56:13;;;;;;;5.68;1.70;;;6.20;94.50;;;;;;5036501;28;20418;-73
2021/01/19 06:58:41;;;;;;;4.00;2.15;;;6.20;94.50;;;;;;5038388;28;20029;-73
2021/01/19 07:01:12;;;;;;;3.38;2.08;;;6.20;94.50;;;;;;5036348;28;20029;-73
2021/01/19 07:03:40;;;;;;;5.93;2.65;;;6.30;94.80;;;;;;5037179;28;20033;-73
2021/01/19 07:06:09;;;;;;;4.18;2.28;;;6.20;94.60;;;;;;5036409;28;20025;-74
2021/01/19 07:09:04;;;;;;;5.75;2.13;;;6.30;94.60;;;;;;5036947;28;20385;-73
2021/01/19 07:11:36;;;;;;;3.60;2.17;;;6.30;94.70;;;;;;5035995;28;20044;-73
2021/01/19 07:14:12;;;;;;;4.45;2.10;;;6.30;94.70;;;;;;5038212;28;20030;-73
2021/01/19 07:16:53;;;;;;;3.47;2.10;;;6.30;94.80;;;;;;5038182;28;20029;-73
2021/01/19 07:19:57;;;;;;;3.75;2.15;;;6.30;94.80;;;;;;5037820;28;20144;-73
2021/01/19 07:23:02;;;;;;;4.72;2.60;;;6.30;94.90;;;;;;5037567;28;20593;-73
2021/01/19 07:25:28;;;;;;;4.18;2.30;;;6.30;95.00;;;;;;4995787;28;20042;-73
2021/01/19 07:27:57;;;;;;;2.72;1.90;;;6.30;95.10;;;;;;4996061;28;20108;-73
2021/01/19 07:30:24;;;;;;;4.00;1.90;;;6.30;95.10;;;;;;4979141;28;20042;-73
2021/01/19 07:32:52;;;;;;;4.63;2.20;;;6.40;95.10;;;;;;4979808;28;20038;-73
2021/01/19 07:35:23;;;;;;;2.50;1.80;;;6.40;95.10;;;;;;4995655;28;20118;-73
2021/01/19 07:37:56;;;;;;;3.92;2.40;;;6.40;95.10;;;;;;4996097;28;20030;-73
2021/01/19 07:40:23;;;;;;;4.88;2.10;;;6.40;95.10;;;;;;4995536;28;20069;-73
2021/01/19 07:42:49;;;;;;;3.05;1.58;;;6.40;95.10;;;;;;4996033;28;20035;-73
2021/01/19 07:45:15;;;;;;;4.10;1.80;;;6.40;95.10;;;;;;4995306;28;20614;-73
2021/01/19 07:47:42;;;;;;;4.18;1.77;;;6.50;95.20;;;;;;4996440;28;20026;-73
2021/01/19 07:50:19;;;;;;;3.25;1.77;;;6.50;95.20;;;;;;4995605;28;20038;-73
2021/01/19 07:52:46;;;;;;;5.07;2.45;;;6.50;95.20;;;;;;4996355;28;20031;-73
2021/01/19 07:55:21;;;;;;;3.72;2.17;;;6.50;95.20;;;;;;4999834;28;20039;-74
2021/01/19 07:57:49;;;;;;;4.75;2.90;;;6.50;95.30;;;;;;5038056;28;20113;-73
2021/01/19 08:00:24;;;;;;;4.68;1.80;;;6.50;95.40;;;;;;5037128;28;20033;-74
2021/01/19 08:03:01;;;;;;;4.00;1.67;;;6.50;95.40;;;;;;5037135;28;20026;-73
2021/01/19 08:05:27;;;;;;;6.38;2.05;;;6.50;95.40;;;;;;5032638;28;20459;-74
2021/01/19 08:07:53;;;;;;;3.55;1.73;;;6.50;95.50;;;;;;5034579;28;20021;-74
2021/01/19 08:10:22;;;;;;;6.63;1.88;;;6.50;95.50;;;;;;5033592;28;20030;-72
2021/01/19 08:12:52;;;;;;;3.90;1.80;;;6.60;95.60;;;;;;5033235;28;20029;-72
2021/01/19 08:15:26;;;;;;;2.53;1.50;;;6.60;95.60;;;;;;5033468;28;20021;-73
2021/01/19 08:17:55;;;;;;;4.57;1.40;;;6.60;95.60;;;;;;5034529;28;20071;-73
2021/01/19 08:20:29;;;;;;;1.83;1.30;;;6.60;95.60;;;;;;5032358;28;20017;-73
2021/01/19 08:22:56;;;;;;;4.20;1.73;;;6.70;95.60;;;;;;5034174;28;20463;-73
2021/01/19 08:25:27;;;;;;;2.95;1.23;;;6.70;95.60;;;;;;5033358;28;20022;-74
2021/01/19 08:27:53;;;;;;;;;;;6.70;95.60;;;;;;5034377;28;20491;-73
2021/01/19 08:30:30;;;;;;;3.15;1.50;;;6.60;95.50;;;;;;5033608;28;19912;-74
2021/01/19 08:32:57;;;;;;;3.25;1.50;;;6.70;95.60;;;;;;5032894;28;20044;-74
2021/01/19 08:35:25;;;;;;;6.20;1.92;;;6.70;95.70;;;;;;5033466;28;20365;-73
2021/01/19 08:37:56;;;;;;;2.35;1.17;;;6.70;95.70;;;;;;5033719;28;20029;-74
2021/01/19 08:40:32;;;;;;;2.78;1.30;;;6.80;95.70;;;;;;5032365;28;20482;-74
2021/01/19 08:42:59;;;;;;;3.10;1.40;;;6.80;95.80;;;;;;5033990;28;20088;-74
2021/01/19 08:45:30;;;;;;;5.63;1.67;;;6.80;95.80;;;;;;5033345;28;20029;-74
2021/01/19 08:47:58;;;;;;;6.63;1.63;;;6.80;95.80;;;;;;5034013;28;20060;-74
2021/01/19 08:50:25;;;;;;;5.57;2.05;;;6.80;95.80;;;;;;5032000;28;20028;-74
2021/01/19 08:52:52;;;;;;;2.95;1.70;;;6.80;95.90;;;;;;5032463;28;20022;-73
2021/01/19 08:55:19;;;;;;;1.63;1.15;;;6.80;95.90;;;;;;5031916;28;20049;-73
2021/01/19 08:57:50;;;;;;;3.25;1.50;;;6.80;96.00;;;;;;5033641;28;20032;-73
2021/01/19 09:00:30;;;;;;;2.42;1.30;;;6.90;95.90;;;;;;5033213;28;20018;-73
2021/01/19 09:03:00;;;;;;;2.75;2.00;;;6.90;95.90;;;;;;5033556;28;20068;-74
2021/01/19 09:05:29;;;;;;;4.38;1.75;;;6.90;95.90;;;;;;5032961;28;20112;-74
2021/01/19 09:07:56;;;;;;;3.20;1.75;;;6.90;95.90;;;;;;5033558;28;20057;-74
2021/01/19 09:10:25;;;;;;;2.38;1.50;;;6.90;95.90;;;;;;5032928;28;20028;-74
2021/01/19 09:12:52;;;;;;;2.53;1.50;;;7.00;96.00;;;;;;5033331;28;20079;-74
2021/01/19 09:15:18;;;;;;;3.65;1.83;;;7.00;96.00;;;;;;5031995;28;20025;-75
2021/01/19 09:17:59;;;;;;;4.15;2.05;;;7.00;96.00;;;;;;5033174;28;20029;-74
2021/01/19 09:20:26;;;;;;;2.45;1.63;;;7.10;96.00;;;;;;5031490;28;20021;-73
2021/01/19 09:22:53;;;;;;;2.95;1.50;;;7.00;96.00;;;;;;5033209;28;20021;-73
2021/01/19 09:25:23;;;;;;;2.35;1.20;;;7.10;96.00;;;;;;5032611;28;20112;-73
2021/01/19 09:27:49;;;;;;;2.47;1.65;;;7.10;96.00;;;;;;5031485;28;20049;-73
2021/01/19 09:30:18;;;;;;;2.88;1.40;;;7.10;96.00;;;;;;5032378;28;20044;-74
2021/01/19 09:32:44;;;;;;;2.55;1.60;;;7.20;96.00;;;;;;5033006;28;20463;-74
2021/01/19 09:35:15;;;;;;;2.22;1.23;;;7.20;96.10;;;;;;5031637;28;20057;-73
2021/01/19 09:37:41;;;;;;;3.72;1.52;;;7.20;96.10;;;;;;5033373;28;20112;-73
2021/01/19 09:40:08;;;;;;;2.67;1.40;;;7.20;96.10;;;;;;5033088;28;20036;-74
2021/01/19 09:42:39;;;;;;;2.45;1.35;;;7.20;96.10;;;;;;5032197;28;20029;-74
2021/01/19 09:45:10;;;;;;;1.50;1.20;;;7.30;96.10;;;;;;5031475;28;20478;-74
2021/01/19 09:47:38;;;;;;;4.03;1.38;;;7.30;96.10;;;;;;5031598;28;20037;-73
2021/01/19 09:50:07;;;;;;;2.95;1.33;;;7.30;96.10;;;;;;5032686;28;20088;-73
2021/01/19 09:52:34;;;;;;;3.67;1.90;;;7.30;96.10;;;;;;5031773;28;20105;-74
2021/01/19 09:55:09;;;;;;;2.97;1.33;;;7.40;96.10;;;;;;5032708;28;20439;-73
2021/01/19 09:57:35;;;;;;;2.67;1.48;;;7.40;96.20;;;;;;5030537;28;20052;-74
2021/01/19 10:00:01;;;;;;;3.00;1.58;;;7.40;96.20;;;;;;5032564;28;20060;-73
2021/01/19 10:02:30;;;;;;;3.05;1.40;;;7.50;96.20;;;;;;5030450;28;20049;-74
2021/01/19 10:05:00;;;;;;;3.05;1.33;;;7.50;96.20;;;;;;5030874;28;20029;-73
2021/01/19 10:07:28;;;;;;;3.42;1.65;;;7.50;96.20;;;;;;5030037;28;20395;-73
2021/01/19 10:10:04;;;;;;;2.88;1.40;;;7.50;96.20;;;;;;5032220;28;20053;-73
2021/01/19 10:12:30;;;;;;;3.03;1.30;;;7.60;96.20;;;;;;5031744;28;20566;-74
2021/01/19 10:14:56;;;;;;;4.00;1.65;;;7.60;96.20;;;;;;5032257;28;20082;-73
2021/01/19 10:17:29;;;;;;;2.45;1.40;;;7.60;96.20;;;;;;5030301;28;20056;-73
2021/01/19 10:20:27;;;;;;;4.05;1.55;;;7.70;96.10;;;;;;5032198;28;20112;-73
2021/01/19 10:22:56;;;;;;;3.05;1.60;;;7.70;96.10;;;;;;5030180;28;20108;-71
2021/01/19 10:25:33;;;;;;;3.67;1.50;;;7.70;96.10;;;;;;5031361;28;20018;-74
2021/01/19 10:28:05;;;;;;;2.63;1.80;;;7.80;96.10;;;;;;5031476;28;20052;-73
2021/01/19 10:30:34;;;;;;;3.50;1.98;;;7.80;96.20;;;;;;5031801;28;20139;-73
2021/01/19 10:33:00;;;;;;;3.25;1.50;;;7.80;96.10;;;;;;5030306;28;20029;-73
2021/01/19 10:35:33;;;;;;;3.25;1.55;;;7.80;96.10;;;;;;5031207;28;20109;-73
2021/01/19 10:38:02;;;;;;;3.50;1.88;;;7.90;96.20;;;;;;5031404;28;20388;-73
2021/01/19 10:40:29;;;;;;;3.05;1.67;;;7.90;96.10;;;;;;5029814;28;20017;-73
2021/01/19 10:42:55;;;;;;;5.40;2.20;;;8.00;96.10;;;;;;5031799;28;20032;-71
2021/01/19 10:45:31;;;;;;;2.42;1.60;;;8.00;96.10;;;;;;5031204;28;20088;-75
2021/01/19 10:47:59;;;;;;;3.55;2.03;;;8.10;96.20;;;;;;5030362;28;20098;-74
2021/01/19 10:50:29;;;;;;;5.80;1.95;;;8.10;96.20;;;;;;5031229;28;20151;-75
2021/01/19 10:53:04;;;;;;;3.50;1.90;;;8.10;96.20;;;;;;5030464;28;20038;-73
2021/01/19 10:55:30;;;;;;;2.92;1.55;;;8.20;96.20;;;;;;5029970;28;20037;-74
2021/01/19 10:58:02;;;;;;;3.55;1.63;;;8.20;96.20;;;;;;5031449;28;20128;-74
2021/01/19 11:00:29;;;;;;;4.32;1.77;;;8.30;96.20;;;;;;5031063;28;20018;-73
2021/01/19 11:02:55;;;;;;;3.10;1.67;;;8.30;96.20;;;;;;5031556;28;20029;-73
2021/01/19 11:05:22;;;;;;;3.88;1.90;;;8.40;96.20;;;;;;5031290;28;20498;-75
2021/01/19 11:07:49;;;;;;;3.53;1.77;;;8.40;96.20;;;;;;5031621;28;20014;-72
2021/01/19 11:10:21;;;;;;;3.10;1.63;;;8.40;96.10;;;;;;5030212;28;20044;-74
2021/01/19 11:12:47;;;;;;;;;;;8.50;96.20;;;;;;5031379;28;20021;-73
2021/01/19 11:15:13;;;;;;;5.05;3.00;;;8.50;96.10;;;;;;5031526;28;20004;-73
2021/01/19 11:17:39;;;;;;;3.00;1.33;;;8.60;96.20;;;;;;5029308;28;20022;-73
2021/01/19 11:20:07;;;;;;;3.90;1.63;;;8.70;96.20;;;;;;5031031;28;20017;-72
2021/01/19 11:22:33;;;;;;;3.88;1.52;;;8.70;96.20;;;;;;5029379;28;20026;-73
2021/01/19 11:24:59;;;;;;;3.38;1.55;;;8.80;96.20;;;;;;5030025;28;20029;-73
2021/01/19 11:27:25;;;;;;;3.13;1.55;;;8.80;96.10;;;;;;5029041;28;20046;-73
2021/01/19 11:29:50;;;;;;;3.25;1.38;;;8.90;96.10;;;;;;5030145;28;20349;-72
2021/01/19 11:32:16;;;;;;;2.10;0.98;;;8.90;96.10;;;;;;5031390;28;20356;-73
2021/01/19 11:34:42;;;;;;;2.72;1.25;;;9.00;96.20;;;;;;5030856;28;20485;-73
2021/01/19 11:37:08;;;;;;;3.00;1.23;;;9.00;96.10;;;;;;5031138;28;20033;-73
2021/01/19 11:39:34;;;;;;;1.63;1.23;;;9.10;96.20;;;;;;5033134;28;20029;-73
2021/01/19 11:41:59;;;;;;;1.98;1.23;;;9.10;96.10;;;;;;5035010;28;20459;-72
2021/01/19 11:44:26;;;;;;;4.47;1.30;;;9.10;96.10;;;;;;5034334;28;20041;-73
2021/01/19 11:46:51;;;;;;;1.85;1.13;;;9.20;96.10;;;;;;5034903;28;20032;-73
2021/01/19 11:49:17;;;;;;;4.10;1.25;;;9.20;96.10;;;;;;5033444;28;20026;-72
2021/01/19 11:51:44;;;;;;;3.20;1.75;;;9.20;96.10;;;;;;5033987;28;20459;-73
2021/01/19 11:54:10;;;;;;;2.58;1.38;;;9.30;96.10;;;;;;5034835;28;20047;-73
2021/01/19 11:56:48;;;;;;;2.58;1.50;;;9.30;96.10;;;;;;5034057;28;20490;-73
2021/01/19 11:59:14;;;;;;;4.68;1.50;;;9.30;96.20;;;;;;5049978;28;20132;-72
2021/01/19 12:01:41;;;;;;;3.25;1.65;;;9.30;96.20;;;;;;5034124;28;20382;-72
2021/01/19 12:04:10;;;;;;;3.92;1.52;;;9.30;96.10;;;;;;5034735;28;20065;-72
2021/01/19 12:06:38;;;;;;;3.55;1.40;;;9.40;96.20;;;;;;5034155;28;20026;-73
2021/01/19 12:09:05;;;;;;;3.65;1.65;;;9.40;96.20;;;;;;5034526;28;20082;-73
2021/01/19 12:11:31;;;;;;;1.98;1.10;;;9.50;96.20;;;;;;5033977;28;20040;-73
2021/01/19 12:13:56;;;;;;;3.13;1.42;;;9.40;96.20;;;;;;5034758;28;20101;-73
2021/01/19 12:16:23;;;;;;;2.63;1.67;;;9.50;96.20;;;;;;5033099;28;20462;-73
2021/01/19 12:18:50;;;;;;;3.85;1.85;;;9.50;96.20;;;;;;5032450;28;20024;-73
2021/01/19 12:21:17;;;;;;;3.70;1.88;;;9.50;96.20;;;;;;5033157;28;20484;-73
2021/01/19 12:23:44;;;;;;;3.70;1.73;;;9.50;96.20;;;;;;5033568;28;20033;-73
2021/01/19 12:26:10;;;;;;;4.03;1.55;;;9.60;96.20;;;;;;5032990;28;20021;-73
2021/01/19 12:28:35;;;;;;;4.13;1.80;;;9.60;96.20;;;;;;5033266;28;20048;-73
2021/01/19 12:31:01;;;;;;;2.90;1.25;;;9.60;96.20;;;;;;5034380;28;20367;-73
2021/01/19 12:33:27;;;;;;;4.55;2.03;;;9.60;96.20;;;;;;5032819;28;20375;-73
2021/01/19 12:35:53;;;;;;;7.85;2.50;;;9.70;96.20;;;;;;5032349;28;20479;-73
2021/01/19 12:38:19;;;;;;;4.60;2.10;;;9.70;96.20;;;;;;5033938;28;20022;-73
2021/01/19 12:40:45;;;;;;;3.00;1.73;;;9.70;96.20;;;;;;5033334;28;20026;-73
2021/01/19 12:43:11;;;;;;;5.22;1.80;;;9.70;96.20;;;;;;5034113;28;20041;-72
2021/01/19 12:45:38;;;;;;;4.63;2.00;;;9.70;96.20;;;;;;5033282;28;20029;-73
2021/01/19 12:48:05;;;;;;;8.70;2.20;;;9.80;96.30;;;;;;5033600;28;20098;-73
2021/01/19 12:50:32;;;;;;;4.80;2.45;;;9.80;96.30;;;;;;5032009;28;20061;-73
2021/01/19 12:53:00;;;;;;;6.40;2.78;;;9.70;96.20;;;;;;5033384;28;20026;-72
2021/01/19 12:55:26;;;;;;;4.68;2.17;;;9.80;96.30;;;;;;5033655;28;20075;-72
2021/01/19 12:57:52;;;;;;;8.32;2.67;;;9.80;96.30;;;;;;5032973;28;20025;-74
2021/01/19 13:00:18;;;;;;;6.53;2.83;;;9.80;96.20;;;;;;5033517;28;20143;-73
2021/01/19 13:02:43;;;;;;;5.25;2.13;;;9.90;96.50;;;;;;5032873;28;20021;-73
2021/01/19 13:05:11;;;;;;;4.68;2.08;;;9.90;96.30;;;;;;5033466;28;20021;-73
2021/01/19 13:07:37;;;;;;;3.63;1.80;;;9.90;96.30;;;;;;5032943;28;20060;-73